sensor_id;sensor_type;location;lat;lon;timestamp;P1;durP1;ratioP1;P2;durP2;ratioP2
9518;SDS011;4797;50.220;8.782;2022-09-09T00:01:49;77.50;;;70.30;;
9518;SDS011;4797;50.220;8.782;2022-09-09T00:04:23;71.15;;;64.97;;
9518;SDS011;4797;50.220;8.782;2022-09-09T00:07:00;66.63;;;60.83;;
9518;SDS011;4797;50.220;8.782;2022-09-09T00:09:30;67.15;;;61.28;;
9518;SDS011;4797;50.220;8.782;2022-09-09T00:12:00;65.90;;;60.28;;
9518;SDS011;4797;50.220;8.782;2022-09-09T00:14:33;63.70;;;58.17;;
9518;SDS011;4797;50.220;8.782;2022-09-09T00:17:04;64.47;;;58.97;;
9518;SDS011;4797;50.220;8.782;2022-09-09T00:19:36;70.47;;;64.35;;
9518;SDS011;4797;50.220;8.782;2022-09-09T00:22:14;70.13;;;64.15;;
9518;SDS011;4797;50.220;8.782;2022-09-09T00:24:44;82.97;;;76.40;;
9518;SDS011;4797;50.220;8.782;2022-09-09T00:27:16;78.90;;;72.80;;
9518;SDS011;4797;50.220;8.782;2022-09-09T00:29:45;91.60;;;85.35;;
9518;SDS011;4797;50.220;8.782;2022-09-09T00:32:15;89.80;;;83.28;;
9518;SDS011;4797;50.220;8.782;2022-09-09T00:34:46;78.13;;;71.68;;
9518;SDS011;4797;50.220;8.782;2022-09-09T00:37:16;72.68;;;66.68;;
9518;SDS011;4797;50.220;8.782;2022-09-09T00:39:46;65.50;;;59.85;;
9518;SDS011;4797;50.220;8.782;2022-09-09T00:42:15;66.68;;;61.15;;
9518;SDS011;4797;50.220;8.782;2022-09-09T00:44:51;67.13;;;61.47;;
9518;SDS011;4797;50.220;8.782;2022-09-09T00:50:12;71.32;;;64.93;;
9518;SDS011;4797;50.220;8.782;2022-09-09T00:52:46;67.25;;;61.67;;
9518;SDS011;4797;50.220;8.782;2022-09-09T00:55:17;68.03;;;62.00;;
9518;SDS011;4797;50.220;8.782;2022-09-09T00:57:48;72.53;;;66.60;;
9518;SDS011;4797;50.220;8.782;2022-09-09T01:00:21;72.45;;;66.45;;
9518;SDS011;4797;50.220;8.782;2022-09-09T01:02:54;68.85;;;63.13;;
9518;SDS011;4797;50.220;8.782;2022-09-09T01:05:27;67.03;;;61.45;;
9518;SDS011;4797;50.220;8.782;2022-09-09T01:07:59;65.65;;;59.95;;
9518;SDS011;4797;50.220;8.782;2022-09-09T01:10:30;65.70;;;59.95;;
9518;SDS011;4797;50.220;8.782;2022-09-09T01:13:04;65.43;;;59.90;;
9518;SDS011;4797;50.220;8.782;2022-09-09T02:22:21;63.53;;;58.30;;
9518;SDS011;4797;50.220;8.782;2022-09-09T02:24:50;60.28;;;55.28;;
9518;SDS011;4797;50.220;8.782;2022-09-09T02:27:21;64.90;;;59.60;;
9518;SDS011;4797;50.220;8.782;2022-09-09T02:29:50;67.53;;;62.03;;
9518;SDS011;4797;50.220;8.782;2022-09-09T02:32:20;61.80;;;56.75;;
9518;SDS011;4797;50.220;8.782;2022-09-09T02:34:51;65.47;;;60.00;;
9518;SDS011;4797;50.220;8.782;2022-09-09T02:37:22;61.20;;;56.33;;
9518;SDS011;4797;50.220;8.782;2022-09-09T02:39:54;62.47;;;57.22;;
9518;SDS011;4797;50.220;8.782;2022-09-09T02:42:22;63.38;;;58.22;;
9518;SDS011;4797;50.220;8.782;2022-09-09T02:44:51;61.13;;;56.22;;
9518;SDS011;4797;50.220;8.782;2022-09-09T02:47:23;61.13;;;56.25;;
9518;SDS011;4797;50.220;8.782;2022-09-09T02:49:57;64.50;;;59.30;;
9518;SDS011;4797;50.220;8.782;2022-09-09T02:52:32;63.22;;;57.90;;
9518;SDS011;4797;50.220;8.782;2022-09-09T02:55:05;63.90;;;58.67;;
9518;SDS011;4797;50.220;8.782;2022-09-09T02:57:35;64.03;;;58.65;;
9518;SDS011;4797;50.220;8.782;2022-09-09T03:00:04;64.28;;;59.10;;
9518;SDS011;4797;50.220;8.782;2022-09-09T03:02:33;62.85;;;57.60;;
9518;SDS011;4797;50.220;8.782;2022-09-09T03:05:01;60.67;;;55.75;;
9518;SDS011;4797;50.220;8.782;2022-09-09T03:07:31;60.10;;;55.00;;
9518;SDS011;4797;50.220;8.782;2022-09-09T03:09:59;61.72;;;56.83;;
9518;SDS011;4797;50.220;8.782;2022-09-09T03:12:27;60.83;;;55.85;;
9518;SDS011;4797;50.220;8.782;2022-09-09T03:14:55;61.10;;;55.92;;
9518;SDS011;4797;50.220;8.782;2022-09-09T03:17:24;63.10;;;57.38;;
9518;SDS011;4797;50.220;8.782;2022-09-09T03:19:54;61.40;;;56.38;;
9518;SDS011;4797;50.220;8.782;2022-09-09T03:22:23;63.63;;;58.20;;
9518;SDS011;4797;50.220;8.782;2022-09-09T03:24:53;61.53;;;56.38;;
9518;SDS011;4797;50.220;8.782;2022-09-09T03:27:22;62.80;;;57.75;;
9518;SDS011;4797;50.220;8.782;2022-09-09T03:29:50;62.13;;;57.17;;
9518;SDS011;4797;50.220;8.782;2022-09-09T03:32:19;62.92;;;57.80;;
9518;SDS011;4797;50.220;8.782;2022-09-09T03:34:48;62.17;;;56.80;;
9518;SDS011;4797;50.220;8.782;2022-09-09T03:37:16;61.15;;;56.17;;
9518;SDS011;4797;50.220;8.782;2022-09-09T03:39:44;59.33;;;54.45;;
9518;SDS011;4797;50.220;8.782;2022-09-09T03:42:15;63.97;;;58.63;;
9518;SDS011;4797;50.220;8.782;2022-09-09T03:44:45;60.38;;;55.55;;
9518;SDS011;4797;50.220;8.782;2022-09-09T03:47:16;63.05;;;58.10;;
9518;SDS011;4797;50.220;8.782;2022-09-09T03:49:45;64.68;;;59.35;;
9518;SDS011;4797;50.220;8.782;2022-09-09T03:52:14;64.28;;;58.55;;
9518;SDS011;4797;50.220;8.782;2022-09-09T03:54:48;63.88;;;58.70;;
9518;SDS011;4797;50.220;8.782;2022-09-09T03:57:18;62.63;;;57.50;;
9518;SDS011;4797;50.220;8.782;2022-09-09T03:59:48;63.92;;;58.70;;
9518;SDS011;4797;50.220;8.782;2022-09-09T04:02:16;64.68;;;59.45;;
9518;SDS011;4797;50.220;8.782;2022-09-09T04:04:44;62.13;;;57.10;;
9518;SDS011;4797;50.220;8.782;2022-09-09T04:07:12;61.25;;;56.20;;
9518;SDS011;4797;50.220;8.782;2022-09-09T04:09:41;62.10;;;57.00;;
9518;SDS011;4797;50.220;8.782;2022-09-09T04:12:10;65.38;;;60.15;;
9518;SDS011;4797;50.220;8.782;2022-09-09T04:14:40;58.72;;;53.53;;
9518;SDS011;4797;50.220;8.782;2022-09-09T04:17:08;63.15;;;57.88;;
9518;SDS011;4797;50.220;8.782;2022-09-09T04:19:37;64.05;;;58.83;;
9518;SDS011;4797;50.220;8.782;2022-09-09T04:22:05;57.08;;;52.25;;
9518;SDS011;4797;50.220;8.782;2022-09-09T04:24:33;57.08;;;52.55;;
9518;SDS011;4797;50.220;8.782;2022-09-09T04:27:02;58.75;;;53.95;;
9518;SDS011;4797;50.220;8.782;2022-09-09T04:29:30;61.67;;;56.53;;
9518;SDS011;4797;50.220;8.782;2022-09-09T04:31:59;58.60;;;53.90;;
9518;SDS011;4797;50.220;8.782;2022-09-09T04:34:28;61.05;;;56.20;;
9518;SDS011;4797;50.220;8.782;2022-09-09T04:36:57;63.53;;;58.38;;
9518;SDS011;4797;50.220;8.782;2022-09-09T04:39:26;58.95;;;54.17;;
9518;SDS011;4797;50.220;8.782;2022-09-09T04:41:55;62.05;;;56.40;;
9518;SDS011;4797;50.220;8.782;2022-09-09T04:44:24;63.42;;;58.33;;
9518;SDS011;4797;50.220;8.782;2022-09-09T04:46:52;59.78;;;54.42;;
9518;SDS011;4797;50.220;8.782;2022-09-09T04:49:21;58.72;;;53.97;;
9518;SDS011;4797;50.220;8.782;2022-09-09T04:51:49;52.28;;;47.85;;
9518;SDS011;4797;50.220;8.782;2022-09-09T04:54:17;64.15;;;58.05;;
9518;SDS011;4797;50.220;8.782;2022-09-09T04:56:46;63.70;;;58.45;;
9518;SDS011;4797;50.220;8.782;2022-09-09T04:59:14;61.67;;;56.97;;
9518;SDS011;4797;50.220;8.782;2022-09-09T05:01:42;57.53;;;52.85;;
9518;SDS011;4797;50.220;8.782;2022-09-09T05:04:10;58.88;;;54.13;;
9518;SDS011;4797;50.220;8.782;2022-09-09T05:06:40;57.67;;;52.90;;
9518;SDS011;4797;50.220;8.782;2022-09-09T05:09:08;57.33;;;52.90;;
9518;SDS011;4797;50.220;8.782;2022-09-09T05:11:36;58.88;;;54.17;;
9518;SDS011;4797;50.220;8.782;2022-09-09T05:14:04;60.90;;;56.10;;
9518;SDS011;4797;50.220;8.782;2022-09-09T05:16:32;56.75;;;52.25;;
9518;SDS011;4797;50.220;8.782;2022-09-09T05:19:01;58.78;;;53.83;;
9518;SDS011;4797;50.220;8.782;2022-09-09T05:21:30;57.05;;;51.95;;
9518;SDS011;4797;50.220;8.782;2022-09-09T05:23:59;57.70;;;53.00;;
9518;SDS011;4797;50.220;8.782;2022-09-09T05:26:27;57.47;;;52.80;;
9518;SDS011;4797;50.220;8.782;2022-09-09T05:28:57;58.08;;;53.45;;
9518;SDS011;4797;50.220;8.782;2022-09-09T05:31:26;53.08;;;48.85;;
9518;SDS011;4797;50.220;8.782;2022-09-09T05:33:56;57.90;;;53.28;;
9518;SDS011;4797;50.220;8.782;2022-09-09T05:36:25;50.33;;;46.40;;
9518;SDS011;4797;50.220;8.782;2022-09-09T05:38:53;59.00;;;53.92;;
9518;SDS011;4797;50.220;8.782;2022-09-09T05:41:22;57.45;;;52.88;;
9518;SDS011;4797;50.220;8.782;2022-09-09T05:43:50;59.63;;;54.08;;
9518;SDS011;4797;50.220;8.782;2022-09-09T05:46:19;58.33;;;53.72;;
9518;SDS011;4797;50.220;8.782;2022-09-09T05:48:48;59.38;;;54.60;;
9518;SDS011;4797;50.220;8.782;2022-09-09T05:51:18;52.35;;;48.03;;
9518;SDS011;4797;50.220;8.782;2022-09-09T05:53:48;56.92;;;52.45;;
9518;SDS011;4797;50.220;8.782;2022-09-09T05:56:17;57.42;;;52.88;;
9518;SDS011;4797;50.220;8.782;2022-09-09T05:58:47;51.90;;;47.78;;
9518;SDS011;4797;50.220;8.782;2022-09-09T06:01:16;60.97;;;54.35;;
9518;SDS011;4797;50.220;8.782;2022-09-09T06:03:45;57.78;;;53.22;;
9518;SDS011;4797;50.220;8.782;2022-09-09T06:06:15;50.63;;;46.60;;
9518;SDS011;4797;50.220;8.782;2022-09-09T06:08:44;54.78;;;50.20;;
9518;SDS011;4797;50.220;8.782;2022-09-09T06:11:13;57.08;;;52.70;;
9518;SDS011;4797;50.220;8.782;2022-09-09T06:13:41;50.72;;;46.65;;
9518;SDS011;4797;50.220;8.782;2022-09-09T06:16:11;56.80;;;52.33;;
9518;SDS011;4797;50.220;8.782;2022-09-09T06:18:40;57.35;;;52.95;;
9518;SDS011;4797;50.220;8.782;2022-09-09T06:21:11;56.67;;;52.25;;
9518;SDS011;4797;50.220;8.782;2022-09-09T06:23:39;57.42;;;52.55;;
9518;SDS011;4797;50.220;8.782;2022-09-09T06:26:10;57.08;;;52.50;;
9518;SDS011;4797;50.220;8.782;2022-09-09T06:28:39;57.22;;;52.55;;
9518;SDS011;4797;50.220;8.782;2022-09-09T06:31:09;49.78;;;45.95;;
9518;SDS011;4797;50.220;8.782;2022-09-09T06:33:39;56.47;;;52.13;;
9518;SDS011;4797;50.220;8.782;2022-09-09T06:36:10;56.58;;;52.13;;
9518;SDS011;4797;50.220;8.782;2022-09-09T06:38:39;49.85;;;45.90;;
9518;SDS011;4797;50.220;8.782;2022-09-09T06:41:07;57.35;;;52.67;;
9518;SDS011;4797;50.220;8.782;2022-09-09T06:43:35;56.40;;;52.03;;
9518;SDS011;4797;50.220;8.782;2022-09-09T06:46:05;57.15;;;52.60;;
9518;SDS011;4797;50.220;8.782;2022-09-09T06:48:34;57.97;;;53.13;;
9518;SDS011;4797;50.220;8.782;2022-09-09T06:51:05;56.25;;;51.25;;
9518;SDS011;4797;50.220;8.782;2022-09-09T06:53:34;58.15;;;53.58;;
9518;SDS011;4797;50.220;8.782;2022-09-09T06:56:03;52.15;;;47.53;;
9518;SDS011;4797;50.220;8.782;2022-09-09T06:58:44;60.47;;;55.58;;
9518;SDS011;4797;50.220;8.782;2022-09-09T07:01:14;55.13;;;50.88;;
9518;SDS011;4797;50.220;8.782;2022-09-09T07:03:42;58.17;;;53.60;;
9518;SDS011;4797;50.220;8.782;2022-09-09T07:06:15;60.78;;;55.75;;
9518;SDS011;4797;50.220;8.782;2022-09-09T07:08:47;46.92;;;43.22;;
9518;SDS011;4797;50.220;8.782;2022-09-09T07:11:23;53.55;;;48.97;;
9518;SDS011;4797;50.220;8.782;2022-09-09T07:13:51;54.20;;;49.67;;
9518;SDS011;4797;50.220;8.782;2022-09-09T07:16:20;53.25;;;48.90;;
9518;SDS011;4797;50.220;8.782;2022-09-09T07:18:49;47.72;;;43.88;;
9518;SDS011;4797;50.220;8.782;2022-09-09T07:21:19;60.85;;;55.22;;
9518;SDS011;4797;50.220;8.782;2022-09-09T07:23:48;52.42;;;48.20;;
9518;SDS011;4797;50.220;8.782;2022-09-09T07:26:17;53.28;;;49.00;;
9518;SDS011;4797;50.220;8.782;2022-09-09T07:28:46;51.53;;;47.22;;
9518;SDS011;4797;50.220;8.782;2022-09-09T07:31:15;63.85;;;58.40;;
9518;SDS011;4797;50.220;8.782;2022-09-09T07:33:44;46.63;;;42.40;;
9518;SDS011;4797;50.220;8.782;2022-09-09T07:36:13;54.63;;;50.10;;
9518;SDS011;4797;50.220;8.782;2022-09-09T07:38:43;60.58;;;55.40;;
9518;SDS011;4797;50.220;8.782;2022-09-09T07:41:13;56.20;;;51.53;;
9518;SDS011;4797;50.220;8.782;2022-09-09T07:43:43;53.50;;;49.05;;
9518;SDS011;4797;50.220;8.782;2022-09-09T07:46:12;57.55;;;52.75;;
9518;SDS011;4797;50.220;8.782;2022-09-09T07:48:43;46.55;;;43.05;;
9518;SDS011;4797;50.220;8.782;2022-09-09T07:51:11;62.90;;;57.72;;
9518;SDS011;4797;50.220;8.782;2022-09-09T07:53:44;58.53;;;53.03;;
9518;SDS011;4797;50.220;8.782;2022-09-09T07:56:13;66.03;;;60.63;;
9518;SDS011;4797;50.220;8.782;2022-09-09T07:58:44;71.55;;;66.10;;
9518;SDS011;4797;50.220;8.782;2022-09-09T08:01:13;80.43;;;74.20;;
9518;SDS011;4797;50.220;8.782;2022-09-09T08:03:43;62.20;;;56.90;;
9518;SDS011;4797;50.220;8.782;2022-09-09T08:06:11;69.18;;;64.15;;
9518;SDS011;4797;50.220;8.782;2022-09-09T08:08:40;69.05;;;63.22;;
9518;SDS011;4797;50.220;8.782;2022-09-09T08:11:11;62.92;;;57.65;;
9518;SDS011;4797;50.220;8.782;2022-09-09T08:13:41;56.53;;;51.72;;
9518;SDS011;4797;50.220;8.782;2022-09-09T08:16:10;68.13;;;62.42;;
9518;SDS011;4797;50.220;8.782;2022-09-09T08:18:38;69.75;;;64.57;;
9518;SDS011;4797;50.220;8.782;2022-09-09T08:21:08;79.13;;;73.03;;
9518;SDS011;4797;50.220;8.782;2022-09-09T08:23:38;66.35;;;61.10;;
9518;SDS011;4797;50.220;8.782;2022-09-09T08:26:09;72.78;;;66.80;;
9518;SDS011;4797;50.220;8.782;2022-09-09T08:28:39;113.38;;;106.65;;
9518;SDS011;4797;50.220;8.782;2022-09-09T08:31:09;107.97;;;101.55;;
9518;SDS011;4797;50.220;8.782;2022-09-09T08:33:37;125.40;;;118.40;;
9518;SDS011;4797;50.220;8.782;2022-09-09T08:36:08;101.47;;;94.70;;
9518;SDS011;4797;50.220;8.782;2022-09-09T08:38:37;188.35;;;178.57;;
9518;SDS011;4797;50.220;8.782;2022-09-09T08:41:19;188.80;;;178.80;;
9518;SDS011;4797;50.220;8.782;2022-09-09T08:44:00;114.72;;;107.53;;
9518;SDS011;4797;50.220;8.782;2022-09-09T08:46:31;123.75;;;116.70;;
9518;SDS011;4797;50.220;8.782;2022-09-09T08:49:04;140.73;;;133.30;;
9518;SDS011;4797;50.220;8.782;2022-09-09T08:51:33;198.52;;;187.15;;
9518;SDS011;4797;50.220;8.782;2022-09-09T08:54:02;183.85;;;174.02;;
9518;SDS011;4797;50.220;8.782;2022-09-09T08:56:31;42.70;;;39.72;;
9518;SDS011;4797;50.220;8.782;2022-09-09T08:59:02;42.95;;;39.83;;
9518;SDS011;4797;50.220;8.782;2022-09-09T09:01:35;43.55;;;40.35;;
9518;SDS011;4797;50.220;8.782;2022-09-09T09:04:07;58.88;;;54.17;;
9518;SDS011;4797;50.220;8.782;2022-09-09T09:06:44;44.97;;;41.72;;
9518;SDS011;4797;50.220;8.782;2022-09-09T09:09:16;58.53;;;53.17;;
9518;SDS011;4797;50.220;8.782;2022-09-09T09:11:47;41.10;;;38.20;;
9518;SDS011;4797;50.220;8.782;2022-09-09T09:14:17;41.22;;;38.10;;
9518;SDS011;4797;50.220;8.782;2022-09-09T09:16:48;41.78;;;38.70;;
9518;SDS011;4797;50.220;8.782;2022-09-09T09:19:18;46.42;;;42.75;;
9518;SDS011;4797;50.220;8.782;2022-09-09T09:21:50;40.78;;;37.85;;
9518;SDS011;4797;50.220;8.782;2022-09-09T09:24:20;42.60;;;38.42;;
9518;SDS011;4797;50.220;8.782;2022-09-09T09:26:51;41.60;;;38.63;;
9518;SDS011;4797;50.220;8.782;2022-09-09T09:29:23;45.00;;;41.50;;
9518;SDS011;4797;50.220;8.782;2022-09-09T09:31:52;41.67;;;38.78;;
9518;SDS011;4797;50.220;8.782;2022-09-09T09:34:21;42.53;;;39.58;;
9518;SDS011;4797;50.220;8.782;2022-09-09T09:36:52;42.47;;;39.03;;
9518;SDS011;4797;50.220;8.782;2022-09-09T09:39:24;43.95;;;40.90;;
9518;SDS011;4797;50.220;8.782;2022-09-09T09:42:14;56.42;;;51.78;;
9518;SDS011;4797;50.220;8.782;2022-09-09T09:44:48;42.75;;;39.70;;
9518;SDS011;4797;50.220;8.782;2022-09-09T09:47:17;43.20;;;38.85;;
9518;SDS011;4797;50.220;8.782;2022-09-09T09:49:51;44.85;;;41.42;;
9518;SDS011;4797;50.220;8.782;2022-09-09T09:52:21;45.88;;;42.30;;
9518;SDS011;4797;50.220;8.782;2022-09-09T09:54:50;45.28;;;41.30;;
9518;SDS011;4797;50.220;8.782;2022-09-09T09:57:21;42.13;;;39.10;;
9518;SDS011;4797;50.220;8.782;2022-09-09T10:00:01;42.75;;;39.53;;
9518;SDS011;4797;50.220;8.782;2022-09-09T10:02:31;42.88;;;39.80;;
9518;SDS011;4797;50.220;8.782;2022-09-09T10:05:05;54.58;;;50.30;;
9518;SDS011;4797;50.220;8.782;2022-09-09T10:07:34;42.10;;;39.13;;
9518;SDS011;4797;50.220;8.782;2022-09-09T10:10:03;41.45;;;38.25;;
9518;SDS011;4797;50.220;8.782;2022-09-09T10:12:36;43.20;;;39.85;;
9518;SDS011;4797;50.220;8.782;2022-09-09T10:15:14;44.35;;;39.75;;
9518;SDS011;4797;50.220;8.782;2022-09-09T10:17:54;59.65;;;54.78;;
9518;SDS011;4797;50.220;8.782;2022-09-09T10:20:29;60.72;;;55.67;;
9518;SDS011;4797;50.220;8.782;2022-09-09T10:23:02;60.08;;;55.30;;
9518;SDS011;4797;50.220;8.782;2022-09-09T10:25:36;42.15;;;39.22;;
9518;SDS011;4797;50.220;8.782;2022-09-09T10:28:19;42.22;;;39.17;;
9518;SDS011;4797;50.220;8.782;2022-09-09T10:30:53;56.55;;;51.75;;
9518;SDS011;4797;50.220;8.782;2022-09-09T10:33:24;62.22;;;56.92;;
9518;SDS011;4797;50.220;8.782;2022-09-09T10:35:57;51.80;;;47.30;;
9518;SDS011;4797;50.220;8.782;2022-09-09T10:38:29;60.45;;;55.30;;
9518;SDS011;4797;50.220;8.782;2022-09-09T10:41:09;55.25;;;49.55;;
9518;SDS011;4797;50.220;8.782;2022-09-09T10:43:42;62.30;;;57.05;;
9518;SDS011;4797;50.220;8.782;2022-09-09T10:46:15;56.92;;;51.05;;
9518;SDS011;4797;50.220;8.782;2022-09-09T10:48:50;55.25;;;50.25;;
9518;SDS011;4797;50.220;8.782;2022-09-09T10:51:28;65.57;;;59.95;;
9518;SDS011;4797;50.220;8.782;2022-09-09T10:54:02;67.28;;;61.08;;
9518;SDS011;4797;50.220;8.782;2022-09-09T10:56:34;66.15;;;60.60;;
9518;SDS011;4797;50.220;8.782;2022-09-09T10:59:04;62.78;;;57.50;;
9518;SDS011;4797;50.220;8.782;2022-09-09T11:01:37;63.95;;;58.33;;
9518;SDS011;4797;50.220;8.782;2022-09-09T11:04:10;63.65;;;57.85;;
9518;SDS011;4797;50.220;8.782;2022-09-09T11:06:41;62.85;;;57.45;;
9518;SDS011;4797;50.220;8.782;2022-09-09T11:09:13;62.45;;;57.17;;
9518;SDS011;4797;50.220;8.782;2022-09-09T11:11:44;65.15;;;59.75;;
9518;SDS011;4797;50.220;8.782;2022-09-09T11:14:16;62.55;;;57.50;;
9518;SDS011;4797;50.220;8.782;2022-09-09T11:16:49;61.63;;;56.55;;
9518;SDS011;4797;50.220;8.782;2022-09-09T11:19:24;61.35;;;56.30;;
9518;SDS011;4797;50.220;8.782;2022-09-09T11:21:55;61.60;;;56.55;;
9518;SDS011;4797;50.220;8.782;2022-09-09T11:24:25;62.10;;;57.17;;
9518;SDS011;4797;50.220;8.782;2022-09-09T11:26:57;63.03;;;57.92;;
9518;SDS011;4797;50.220;8.782;2022-09-09T11:29:38;53.80;;;49.35;;
9518;SDS011;4797;50.220;8.782;2022-09-09T11:32:17;61.05;;;55.97;;
9518;SDS011;4797;50.220;8.782;2022-09-09T11:34:50;60.92;;;55.95;;
9518;SDS011;4797;50.220;8.782;2022-09-09T11:40:16;61.15;;;55.88;;
9518;SDS011;4797;50.220;8.782;2022-09-09T11:42:45;61.65;;;56.60;;
9518;SDS011;4797;50.220;8.782;2022-09-09T11:45:19;41.25;;;38.45;;
9518;SDS011;4797;50.220;8.782;2022-09-09T11:47:54;38.13;;;35.42;;
9518;SDS011;4797;50.220;8.782;2022-09-09T11:50:27;30.08;;;28.02;;
9518;SDS011;4797;50.220;8.782;2022-09-09T11:53:03;27.23;;;25.67;;
9518;SDS011;4797;50.220;8.782;2022-09-09T11:55:33;24.98;;;22.95;;
9518;SDS011;4797;50.220;8.782;2022-09-09T11:58:03;18.48;;;17.30;;
9518;SDS011;4797;50.220;8.782;2022-09-09T12:00:33;20.10;;;18.80;;
9518;SDS011;4797;50.220;8.782;2022-09-09T12:03:03;22.35;;;21.02;;
9518;SDS011;4797;50.220;8.782;2022-09-09T12:05:38;20.55;;;19.25;;
9518;SDS011;4797;50.220;8.782;2022-09-09T12:08:07;33.83;;;31.52;;
9518;SDS011;4797;50.220;8.782;2022-09-09T12:10:38;42.38;;;38.45;;
9518;SDS011;4797;50.220;8.782;2022-09-09T12:13:07;35.72;;;33.20;;
9518;SDS011;4797;50.220;8.782;2022-09-09T12:15:36;41.50;;;38.70;;
9518;SDS011;4797;50.220;8.782;2022-09-09T12:18:15;41.83;;;38.88;;
9518;SDS011;4797;50.220;8.782;2022-09-09T12:20:52;41.38;;;38.47;;
9518;SDS011;4797;50.220;8.782;2022-09-09T12:23:24;41.72;;;38.78;;
9518;SDS011;4797;50.220;8.782;2022-09-09T12:26:01;42.60;;;39.00;;
9518;SDS011;4797;50.220;8.782;2022-09-09T12:28:39;43.92;;;40.72;;
9518;SDS011;4797;50.220;8.782;2022-09-09T12:31:10;41.58;;;38.65;;
9518;SDS011;4797;50.220;8.782;2022-09-09T12:33:45;42.15;;;39.20;;
9518;SDS011;4797;50.220;8.782;2022-09-09T12:36:15;43.78;;;40.30;;
9518;SDS011;4797;50.220;8.782;2022-09-09T12:38:44;49.25;;;45.25;;
9518;SDS011;4797;50.220;8.782;2022-09-09T12:41:19;41.20;;;38.30;;
9518;SDS011;4797;50.220;8.782;2022-09-09T12:43:48;41.35;;;38.40;;
9518;SDS011;4797;50.220;8.782;2022-09-09T12:46:20;60.33;;;55.63;;
9518;SDS011;4797;50.220;8.782;2022-09-09T12:48:53;55.10;;;50.72;;
9518;SDS011;4797;50.220;8.782;2022-09-09T12:51:24;46.00;;;42.50;;
9518;SDS011;4797;50.220;8.782;2022-09-09T12:53:54;53.78;;;49.65;;
9518;SDS011;4797;50.220;8.782;2022-09-09T12:56:23;42.22;;;39.00;;
9518;SDS011;4797;50.220;8.782;2022-09-09T12:58:53;54.95;;;50.50;;
9518;SDS011;4797;50.220;8.782;2022-09-09T13:01:22;60.03;;;54.65;;
9518;SDS011;4797;50.220;8.782;2022-09-09T13:03:51;56.72;;;52.10;;
9518;SDS011;4797;50.220;8.782;2022-09-09T13:06:22;64.28;;;58.97;;
9518;SDS011;4797;50.220;8.782;2022-09-09T13:08:54;59.55;;;54.50;;
9518;SDS011;4797;50.220;8.782;2022-09-09T13:11:25;58.60;;;53.67;;
9518;SDS011;4797;50.220;8.782;2022-09-09T13:13:54;60.03;;;54.90;;
9518;SDS011;4797;50.220;8.782;2022-09-09T13:16:25;52.88;;;48.60;;
9518;SDS011;4797;50.220;8.782;2022-09-09T13:18:56;55.45;;;50.72;;
9518;SDS011;4797;50.220;8.782;2022-09-09T13:21:33;54.70;;;50.20;;
9518;SDS011;4797;50.220;8.782;2022-09-09T13:24:01;52.80;;;48.40;;
9518;SDS011;4797;50.220;8.782;2022-09-09T13:26:30;58.90;;;54.17;;
9518;SDS011;4797;50.220;8.782;2022-09-09T13:29:07;42.70;;;39.72;;
9518;SDS011;4797;50.220;8.782;2022-09-09T13:31:36;46.80;;;43.15;;
9518;SDS011;4797;50.220;8.782;2022-09-09T13:34:10;41.28;;;38.38;;
9518;SDS011;4797;50.220;8.782;2022-09-09T13:36:40;42.20;;;39.30;;
9518;SDS011;4797;50.220;8.782;2022-09-09T13:39:12;42.75;;;39.70;;
9518;SDS011;4797;50.220;8.782;2022-09-09T13:41:43;41.47;;;38.45;;
9518;SDS011;4797;50.220;8.782;2022-09-09T13:44:14;40.63;;;37.90;;
9518;SDS011;4797;50.220;8.782;2022-09-09T13:46:45;45.45;;;41.78;;
9518;SDS011;4797;50.220;8.782;2022-09-09T13:49:19;59.42;;;54.72;;
9518;SDS011;4797;50.220;8.782;2022-09-09T13:51:51;41.63;;;38.72;;
9518;SDS011;4797;50.220;8.782;2022-09-09T13:54:20;49.78;;;45.58;;
9518;SDS011;4797;50.220;8.782;2022-09-09T13:56:48;41.33;;;38.42;;
9518;SDS011;4797;50.220;8.782;2022-09-09T13:59:18;57.58;;;52.67;;
9518;SDS011;4797;50.220;8.782;2022-09-09T14:01:47;45.38;;;41.78;;
9518;SDS011;4797;50.220;8.782;2022-09-09T14:04:18;52.63;;;48.60;;
9518;SDS011;4797;50.220;8.782;2022-09-09T14:06:47;42.72;;;39.65;;
9518;SDS011;4797;50.220;8.782;2022-09-09T14:09:17;48.85;;;44.97;;
9518;SDS011;4797;50.220;8.782;2022-09-09T14:11:45;43.58;;;40.47;;
9518;SDS011;4797;50.220;8.782;2022-09-09T14:14:14;60.20;;;55.30;;
9518;SDS011;4797;50.220;8.782;2022-09-09T14:16:42;55.42;;;51.03;;
9518;SDS011;4797;50.220;8.782;2022-09-09T14:19:10;61.40;;;56.20;;
9518;SDS011;4797;50.220;8.782;2022-09-09T14:21:38;60.03;;;55.15;;
9518;SDS011;4797;50.220;8.782;2022-09-09T14:24:07;53.00;;;48.67;;
9518;SDS011;4797;50.220;8.782;2022-09-09T14:26:36;56.53;;;52.03;;
9518;SDS011;4797;50.220;8.782;2022-09-09T14:29:04;58.22;;;53.47;;
9518;SDS011;4797;50.220;8.782;2022-09-09T14:31:34;51.60;;;47.42;;
9518;SDS011;4797;50.220;8.782;2022-09-09T14:34:02;59.45;;;54.72;;
9518;SDS011;4797;50.220;8.782;2022-09-09T14:36:32;41.85;;;38.90;;
9518;SDS011;4797;50.220;8.782;2022-09-09T14:39:00;60.78;;;55.75;;
9518;SDS011;4797;50.220;8.782;2022-09-09T14:41:28;58.13;;;53.42;;
9518;SDS011;4797;50.220;8.782;2022-09-09T14:43:59;54.05;;;49.60;;
9518;SDS011;4797;50.220;8.782;2022-09-09T14:46:27;59.15;;;54.30;;
9518;SDS011;4797;50.220;8.782;2022-09-09T14:48:55;55.30;;;50.08;;
9518;SDS011;4797;50.220;8.782;2022-09-09T14:51:24;53.70;;;49.22;;
9518;SDS011;4797;50.220;8.782;2022-09-09T15:31:57;44.20;;;41.13;;
9518;SDS011;4797;50.220;8.782;2022-09-09T15:34:26;39.88;;;36.83;;
9518;SDS011;4797;50.220;8.782;2022-09-09T15:36:54;41.00;;;37.65;;
